Terminal Aerodrome Forecast
Issued by NWS Upton, NY

Current Version | Previous Version | Text Only | Print | Product List | Glossary On
Versions: 1 2 3 4 5 6 7 8 9 10 11 12 13 14 15 16 17 18 19 20 21 22 23 24 25 26 27 28
000
FTUS41 KOKX 011900 AAA
TAFBDR
TAF AMD
KBDR 011904Z 0119/0218 21008KT P6SM SCT040 BKN080
      TEMPO 0119/0122 SHRA BKN040
     FM020100 21005KT P6SM FEW020 SCT040 BKN150
     FM020500 VRB03KT 5SM BR SCT015 SCT040 BKN150
      TEMPO 0208/0211 3SM BR BKN015
     FM021400 23005KT P6SM FEW020 SCT040
     FM021600 21008KT P6SM SCT050=

USA.gov is the U.S. government's official web portal to all federal, state and local government web resources and services.